Time;durP1;ratioP1;P1;durP2;ratioP2;P2;SDS_P1;SDS_P2;PMS_P1;PMS_P2;Temp;Humidity;BMP_temperature;BMP_pressure;BME280_temperature;BME280_humidity;BME280_pressure;Samples;Min_cycle;Max_cycle;Signal;HPM_P1;HPM_P2
2021/08/09 00:01:15;;;;;;;10.98;8.55;;;;;;;16.76;81.22;100323.53;1710535;83;25723;-85
2021/08/09 00:03:42;;;;;;;11.43;8.73;;;;;;;16.75;81.42;100328.77;1710522;83;25773;-84
2021/08/09 00:06:09;;;;;;;9.20;8.35;;;;;;;16.74;81.62;100331.30;1686609;83;26355;-84
2021/08/09 00:08:36;;;;;;;10.30;9.30;;;;;;;16.73;81.90;100333.20;1710553;83;25776;-84
2021/08/09 00:11:02;;;;;;;11.33;9.13;;;;;;;16.73;82.09;100326.38;1710876;83;27423;-84
2021/08/09 00:13:28;;;;;;;11.22;9.50;;;;;;;16.73;82.32;100320.92;1715567;83;26611;-84
2021/08/09 00:15:57;;;;;;;14.40;9.15;;;;;;;16.75;82.44;100322.75;1715630;83;25710;-85
2021/08/09 00:18:24;;;;;;;10.60;8.68;;;;;;;16.75;82.65;100317.84;1686814;83;25733;-84
2021/08/09 00:20:52;;;;;;;10.18;8.83;;;;;;;16.75;82.72;100315.92;1711287;83;25726;-85
2021/08/09 00:23:20;;;;;;;9.48;8.48;;;;;;;16.78;82.67;100322.61;1705973;83;27429;-85
2021/08/09 00:25:46;;;;;;;11.63;9.48;;;;;;;16.79;82.63;100325.00;1705780;84;25731;-85
2021/08/09 00:28:15;;;;;;;10.03;9.00;;;;;;;16.81;82.77;100330.11;1706065;83;25782;-85
2021/08/09 00:30:42;;;;;;;9.90;8.90;;;;;;;16.84;82.72;100336.80;1706722;84;25642;-85
2021/08/09 00:33:10;;;;;;;10.32;8.43;;;;;;;16.86;82.52;100342.75;1706881;84;26414;-84
2021/08/09 00:35:36;;;;;;;8.80;7.70;;;;;;;16.86;82.59;100352.31;1706053;84;27938;-85
2021/08/09 00:38:03;;;;;;;9.35;8.50;;;;;;;16.86;82.66;100361.30;1705864;83;25727;-84
2021/08/09 00:40:30;;;;;;;9.03;7.25;;;;;;;16.87;82.85;100364.81;1684296;84;26347;-85
2021/08/09 00:42:57;;;;;;;8.53;7.70;;;;;;;16.87;82.69;100367.55;1705847;83;26412;-85
2021/08/09 00:45:23;;;;;;;8.53;7.62;;;;;;;16.87;82.85;100365.59;1705924;83;25663;-85
2021/08/09 00:47:49;;;;;;;9.93;7.97;;;;;;;16.89;82.73;100372.08;1705943;84;27315;-84
2021/08/09 00:50:16;;;;;;;9.85;8.58;;;;;;;16.91;82.89;100372.55;1705840;83;25651;-83
2021/08/09 00:52:42;;;;;;;10.38;7.70;;;;;;;16.91;82.95;100373.33;1705937;83;25662;-83
2021/08/09 00:55:09;;;;;;;10.93;7.65;;;;;;;16.93;82.98;100365.58;1705857;84;26197;-83
2021/08/09 00:57:36;;;;;;;8.68;7.87;;;;;;;16.94;82.88;100372.64;1705774;83;25750;-82
2021/08/09 01:00:05;;;;;;;9.75;7.90;;;;;;;16.96;82.88;100368.20;1706380;83;27856;-82
2021/08/09 01:02:32;;;;;;;8.48;7.62;;;;;;;16.97;82.83;100361.57;1706155;83;26329;-82
2021/08/09 01:05:04;;;;;;;8.20;7.35;;;;;;;16.99;82.94;100359.27;1705831;83;25766;-82
2021/08/09 01:07:36;;;;;;;8.63;7.78;;;;;;;16.99;82.98;100351.89;1705951;84;25861;-82
2021/08/09 01:10:13;;;;;;;8.35;7.55;;;;;;;17.01;82.95;100346.63;1706345;84;26311;-82
2021/08/09 01:13:03;;;;;;;10.40;7.83;;;;;;;17.03;82.95;100339.69;1703863;83;27465;-82
2021/08/09 01:15:37;;;;;;;10.08;7.85;;;;;;;17.08;82.87;100320.88;1705630;84;25695;-82
2021/08/09 01:18:05;;;;;;;7.92;7.22;;;;;;;17.09;82.85;100321.08;1709690;83;25714;-82
2021/08/09 01:20:54;;;;;;;8.53;7.62;;;;;;;17.09;82.80;100320.50;1687393;83;25774;-82
2021/08/09 01:23:51;;;;;;;10.13;8.13;;;;;;;17.09;82.79;100327.91;1709204;83;25782;-82
2021/08/09 01:26:38;;;;;;;8.28;7.45;;;;;;;17.09;82.84;100319.72;1710285;83;28502;-82
2021/08/09 01:29:13;;;;;;;10.32;7.67;;;;;;;17.09;82.77;100320.50;1710431;83;25887;-83
2021/08/09 01:31:46;;;;;;;8.75;7.95;;;;;;;17.12;82.85;100322.53;1710335;83;25790;-82
2021/08/09 01:34:15;;;;;;;8.40;7.58;;;;;;;17.14;82.79;100320.23;1710244;83;25812;-82
2021/08/09 01:36:45;;;;;;;8.75;7.72;;;;;;;17.15;82.75;100323.20;1710742;83;25861;-82
2021/08/09 01:39:15;;;;;;;7.90;7.10;;;;;;;17.17;82.78;100320.12;1710549;83;27943;-82
2021/08/09 01:41:43;;;;;;;9.98;7.33;;;;;;;17.19;82.83;100320.55;1710504;83;25905;-82
2021/08/09 01:44:11;;;;;;;8.80;7.90;;;;;;;17.20;82.75;100302.20;1710126;83;25719;-82
2021/08/09 01:46:39;;;;;;;10.50;7.80;;;;;;;17.21;82.66;100299.70;1710403;83;25700;-84
2021/08/09 01:49:07;;;;;;;9.85;8.00;;;;;;;17.22;82.69;100302.67;1710421;83;25716;-85
2021/08/09 01:51:35;;;;;;;11.28;8.15;;;;;;;17.25;82.70;100300.59;1700537;83;28024;-82
2021/08/09 01:54:03;;;;;;;10.82;7.72;;;;;;;17.25;82.72;100295.13;1710349;83;25770;-82
2021/08/09 01:56:33;;;;;;;11.00;8.13;;;;;;;17.26;82.59;100296.70;1710476;83;25756;-83
2021/08/09 01:59:00;;;;;;;9.00;8.10;;;;;;;17.26;82.65;100298.85;1710477;83;25724;-82
2021/08/09 02:01:27;;;;;;;7.95;7.25;;;;;;;17.25;82.58;100298.65;1685191;84;25761;-84
2021/08/09 02:03:54;;;;;;;16.30;8.15;;;;;;;17.25;82.73;100301.97;1705551;84;27934;-82
2021/08/09 02:06:20;;;;;;;10.50;7.37;;;;;;;17.27;82.58;100299.66;1709247;83;25806;-83
2021/08/09 02:08:48;;;;;;;9.98;7.35;;;;;;;17.27;82.60;100301.81;1711349;83;25710;-85
2021/08/09 02:11:20;;;;;;;10.85;7.80;;;;;;;17.27;82.55;100314.12;1684893;83;26185;-82
2021/08/09 02:13:58;;;;;;;9.58;7.62;;;;;;;17.26;82.55;100312.52;1684577;83;25728;-84
2021/08/09 02:16:41;;;;;;;11.63;7.53;;;;;;;17.24;82.53;100318.13;1710851;83;27971;-84
2021/08/09 02:19:22;;;;;;;8.43;6.95;;;;;;;17.25;82.60;100333.40;1710642;83;25773;-82
2021/08/09 02:21:57;;;;;;;8.08;7.30;;;;;;;17.24;82.67;100338.05;1710704;83;25718;-81
2021/08/09 02:24:34;;;;;;;9.25;7.78;;;;;;;17.24;82.76;100348.20;1708089;83;25738;-84
2021/08/09 02:27:08;;;;;;;8.33;7.47;;;;;;;17.26;82.91;100354.88;1665653;83;25882;-82
2021/08/09 02:29:39;;;;;;;8.05;7.15;;;;;;;17.25;82.87;100351.16;1710107;83;27062;-82
2021/08/09 02:32:08;;;;;;;8.45;7.62;;;;;;;17.26;82.95;100359.56;1711184;83;25877;-81
2021/08/09 02:34:38;;;;;;;9.80;7.30;;;;;;;17.27;83.05;100355.70;1711192;83;25775;-81
2021/08/09 02:37:07;;;;;;;10.53;8.10;;;;;;;17.28;82.97;100354.53;1710426;83;26248;-81
2021/08/09 02:39:35;;;;;;;10.87;8.40;;;;;;;17.29;83.05;100359.66;1710916;83;26346;-81
2021/08/09 02:42:02;;;;;;;8.30;7.50;;;;;;;17.30;83.07;100361.84;1710045;83;27398;-81
2021/08/09 02:44:29;;;;;;;10.90;7.92;;;;;;;17.31;83.03;100361.45;1658703;83;25700;-80
2021/08/09 02:46:58;;;;;;;8.53;7.75;;;;;;;17.34;83.15;100366.80;1710795;83;25627;-80
2021/08/09 02:49:25;;;;;;;10.63;8.28;;;;;;;17.35;83.02;100371.92;1710292;83;25712;-81
2021/08/09 02:51:53;;;;;;;9.35;7.40;;;;;;;17.36;82.98;100378.95;1687579;83;25856;-81
2021/08/09 02:54:20;;;;;;;9.73;7.40;;;;;;;17.38;82.92;100373.72;1710549;83;27564;-81
2021/08/09 02:56:48;;;;;;;9.73;8.20;;;;;;;17.36;82.89;100369.97;1709834;83;25723;-81
2021/08/09 02:59:15;;;;;;;10.58;7.70;;;;;;;17.38;82.93;100364.16;1687792;84;26345;-81
2021/08/09 03:01:42;;;;;;;9.05;7.30;;;;;;;17.38;82.96;100373.14;1705676;83;25705;-82
2021/08/09 03:04:14;;;;;;;9.70;8.23;;;;;;;17.38;82.96;100391.50;1711001;83;25924;-82
2021/08/09 03:06:40;;;;;;;9.30;8.10;;;;;;;17.39;82.97;100395.83;1709618;83;27217;-85
2021/08/09 03:09:08;;;;;;;9.15;8.20;;;;;;;17.39;83.00;100400.72;1710440;83;25890;-82
2021/08/09 03:11:35;;;;;;;12.75;7.65;;;;;;;17.37;82.94;100404.38;1710566;83;25751;-82
2021/08/09 03:14:03;;;;;;;10.65;8.08;;;;;;;17.38;82.98;100405.95;1687993;83;26459;-85
2021/08/09 03:16:29;;;;;;;9.95;7.62;;;;;;;17.38;83.08;100409.27;1687285;83;25753;-85
2021/08/09 03:18:55;;;;;;;9.58;7.80;;;;;;;17.38;83.03;100405.95;1710823;83;27907;-82
2021/08/09 03:21:22;;;;;;;10.40;6.92;;;;;;;17.38;83.02;100397.75;1710480;83;25809;-83
2021/08/09 03:23:48;;;;;;;9.55;7.28;;;;;;;17.38;83.00;100397.75;1710453;83;25723;-83
2021/08/09 03:26:15;;;;;;;11.83;7.15;;;;;;;17.38;83.03;100404.58;1710977;83;25798;-82
2021/08/09 03:28:41;;;;;;;7.85;7.12;;;;;;;17.39;83.01;100408.91;1710637;83;25723;-82
2021/08/09 03:31:07;;;;;;;9.50;7.55;;;;;;;17.41;82.92;100407.98;1690253;83;27962;-82
2021/08/09 03:33:34;;;;;;;8.98;7.42;;;;;;;17.42;82.96;100411.50;1710459;83;25786;-83
2021/08/09 03:36:00;;;;;;;9.78;7.70;;;;;;;17.42;82.93;100421.07;1710573;83;25840;-82
2021/08/09 03:38:27;;;;;;;8.45;7.28;;;;;;;17.43;83.00;100436.34;1710478;83;25742;-82
2021/08/09 03:40:53;;;;;;;10.72;8.10;;;;;;;17.44;82.95;100455.72;1710574;83;25734;-82
2021/08/09 03:43:19;;;;;;;10.65;7.50;;;;;;;17.44;83.01;100451.61;1711806;83;28068;-82
2021/08/09 03:45:46;;;;;;;9.68;8.05;;;;;;;17.43;83.15;100453.53;1710421;83;25779;-82
2021/08/09 03:48:12;;;;;;;8.80;7.90;;;;;;;17.42;83.23;100448.41;1710540;83;25659;-83
2021/08/09 03:50:39;;;;;;;8.68;7.80;;;;;;;17.40;83.30;100444.69;1687469;83;25762;-83
2021/08/09 03:53:05;;;;;;;11.18;7.97;;;;;;;17.39;83.45;100447.77;1712158;83;25750;-83
2021/08/09 03:55:32;;;;;;;8.58;7.58;;;;;;;17.39;83.51;100446.41;1710614;83;27429;-85
2021/08/09 03:57:58;;;;;;;9.40;8.30;;;;;;;17.36;83.74;100442.42;1686366;83;25738;-86
2021/08/09 04:00:26;;;;;;;10.58;8.40;;;;;;;17.35;84.05;100423.86;1706961;83;25818;-86
2021/08/09 04:02:53;;;;;;;12.33;8.48;;;;;;;17.33;83.99;100425.34;1710490;83;26209;-86
2021/08/09 04:05:19;;;;;;;9.75;8.35;;;;;;;17.33;84.26;100430.81;1710538;83;26389;-85
2021/08/09 04:07:46;;;;;;;9.50;8.48;;;;;;;17.31;84.36;100439.36;1710554;83;27365;-85
2021/08/09 04:10:12;;;;;;;10.30;8.13;;;;;;;17.30;84.63;100437.01;1710435;83;26409;-85
2021/08/09 04:12:39;;;;;;;9.18;8.28;;;;;;;17.29;84.82;100434.04;1710383;83;26507;-85
2021/08/09 04:15:07;;;;;;;11.08;8.03;;;;;;;17.27;84.86;100437.13;1686351;83;25781;-85
2021/08/09 04:17:34;;;;;;;11.70;8.85;;;;;;;17.25;85.03;100445.47;1710657;83;25849;-84
2021/08/09 04:20:00;;;;;;;10.40;9.15;;;;;;;17.21;85.23;100443.98;1710540;83;27400;-84
2021/08/09 04:22:26;;;;;;;12.15;9.10;;;;;;;17.20;85.49;100449.24;1710435;83;25737;-84
2021/08/09 04:24:53;;;;;;;9.80;8.73;;;;;;;17.17;86.01;100449.36;1700508;83;25841;-84
2021/08/09 04:27:19;;;;;;;9.88;8.78;;;;;;;17.15;85.74;100457.11;1685806;83;26082;-83
2021/08/09 04:29:46;;;;;;;11.65;9.45;;;;;;;17.15;85.88;100453.59;1710474;83;25783;-83
2021/08/09 04:32:16;;;;;;;10.78;8.68;;;;;;;17.13;86.06;100452.58;1710359;83;27375;-83
2021/08/09 04:34:44;;;;;;;12.75;9.00;;;;;;;17.13;86.21;100455.89;1711026;83;25757;-84
2021/08/09 04:37:11;;;;;;;18.23;8.48;;;;;;;17.14;86.40;100463.71;1710121;83;25624;-83
2021/08/09 04:39:38;;;;;;;13.72;8.88;;;;;;;17.15;86.46;100464.53;1710546;83;26161;-83
2021/08/09 04:42:05;;;;;;;10.15;9.08;;;;;;;17.15;86.66;100462.58;1710454;83;25723;-83
2021/08/09 04:44:32;;;;;;;11.97;8.75;;;;;;;17.17;86.71;100468.48;1710439;83;27993;-83
2021/08/09 04:46:58;;;;;;;10.80;8.43;;;;;;;17.19;86.75;100466.77;1710307;83;25877;-82
2021/08/09 04:49:25;;;;;;;14.07;8.70;;;;;;;17.21;86.83;100460.95;1710392;83;25698;-82
2021/08/09 04:51:53;;;;;;;10.55;8.78;;;;;;;17.22;87.02;100460.61;1710430;83;26175;-82
2021/08/09 04:54:20;;;;;;;10.70;8.98;;;;;;;17.24;86.95;100455.58;1700475;83;25770;-82
2021/08/09 04:56:46;;;;;;;10.25;8.20;;;;;;;17.27;87.01;100451.38;1710509;83;27382;-82
2021/08/09 04:59:12;;;;;;;9.90;8.40;;;;;;;17.29;86.98;100447.71;1710411;83;25770;-82
2021/08/09 05:01:39;;;;;;;12.53;8.55;;;;;;;17.33;87.06;100460.89;1710468;83;25723;-82
2021/08/09 05:04:05;;;;;;;9.38;8.38;;;;;;;17.36;87.02;100460.97;1686191;84;26739;-82
2021/08/09 05:06:34;;;;;;;10.63;8.20;;;;;;;17.41;87.08;100455.83;1685364;83;25786;-82
2021/08/09 05:09:01;;;;;;;8.90;8.03;;;;;;;17.46;87.10;100453.42;1708227;83;27457;-82
2021/08/09 05:11:27;;;;;;;10.00;8.80;;;;;;;17.51;86.97;100465.46;1710396;83;25780;-82
2021/08/09 05:13:53;;;;;;;11.20;8.20;;;;;;;17.49;86.90;100468.55;1710069;83;25722;-82
2021/08/09 05:16:20;;;;;;;10.20;7.67;;;;;;;17.52;86.95;100473.88;1710223;83;25670;-82
2021/08/09 05:18:48;;;;;;;9.30;8.40;;;;;;;17.53;86.92;100474.10;1710492;83;25643;-83
2021/08/09 05:21:16;;;;;;;9.73;7.65;;;;;;;17.56;87.08;100473.41;1710513;83;27369;-83
2021/08/09 05:23:42;;;;;;;11.15;8.28;;;;;;;17.60;87.11;100469.39;1710365;83;25784;-83
2021/08/09 05:26:10;;;;;;;11.78;8.28;;;;;;;17.63;87.16;100469.48;1710395;83;25742;-83
2021/08/09 05:28:36;;;;;;;10.93;8.23;;;;;;;17.69;87.21;100472.73;1710417;83;25646;-83
2021/08/09 05:31:07;;;;;;;11.90;7.78;;;;;;;17.76;87.38;100461.98;1710381;83;25768;-83
2021/08/09 05:33:34;;;;;;;8.75;7.78;;;;;;;17.80;87.25;100466.97;1710444;83;27414;-84
2021/08/09 05:36:01;;;;;;;11.48;7.55;;;;;;;17.87;87.06;100477.32;1710347;83;25654;-83
2021/08/09 05:38:28;;;;;;;10.05;7.50;;;;;;;17.92;87.09;100475.10;1710467;83;25806;-83
2021/08/09 05:40:55;;;;;;;8.85;7.70;;;;;;;17.99;87.05;100481.32;1710619;83;26428;-83
2021/08/09 05:43:21;;;;;;;8.83;7.60;;;;;;;18.05;87.14;100484.02;1711091;83;25327;-84
2021/08/09 05:45:47;;;;;;;15.65;7.72;;;;;;;18.15;87.05;100478.58;1710628;83;27408;-84
2021/08/09 05:48:14;;;;;;;10.35;7.67;;;;;;;18.24;86.86;100481.91;1710506;83;25729;-84
2021/08/09 05:50:40;;;;;;;8.45;6.67;;;;;;;18.35;86.68;100486.25;1690367;83;25848;-85
2021/08/09 05:53:06;;;;;;;8.28;7.40;;;;;;;18.46;86.50;100487.87;1710569;83;25920;-84
2021/08/09 05:55:32;;;;;;;9.28;7.08;;;;;;;18.59;86.43;100489.34;1710721;83;25759;-84
2021/08/09 05:57:59;;;;;;;10.05;6.67;;;;;;;18.78;86.50;100493.23;1710599;83;27322;-85
2021/08/09 06:00:25;;;;;;;7.97;6.70;;;;;;;18.91;85.97;100490.59;1710481;83;25898;-84
2021/08/09 06:02:51;;;;;;;9.08;6.33;;;;;;;19.02;85.59;100492.98;1710646;83;25726;-85
2021/08/09 06:05:18;;;;;;;9.88;5.92;;;;;;;19.12;85.13;100487.50;1710583;83;26300;-84
2021/08/09 06:07:44;;;;;;;10.13;7.42;;;;;;;19.22;84.73;100483.36;1690440;83;25815;-84
2021/08/09 06:10:11;;;;;;;8.25;6.37;;;;;;;19.30;84.62;100489.20;1710653;83;27328;-84
2021/08/09 06:12:38;;;;;;;7.65;6.45;;;;;;;19.39;84.60;100491.14;1710545;83;25719;-84
2021/08/09 06:15:07;;;;;;;7.95;6.20;;;;;;;19.49;84.50;100490.32;1713983;82;25719;-84
2021/08/09 06:17:37;;;;;;;7.35;5.90;;;;;;;19.60;84.17;100491.31;1684737;84;25834;-83
2021/08/09 06:20:05;;;;;;;9.65;5.75;;;;;;;19.70;83.67;100494.82;1706273;84;25709;-85
2021/08/09 06:22:31;;;;;;;7.50;5.70;;;;;;;19.80;83.12;100496.16;1705851;83;27462;-84
2021/08/09 06:24:58;;;;;;;7.70;6.87;;;;;;;19.93;83.40;100498.16;1705872;83;25871;-83
2021/08/09 06:27:24;;;;;;;7.78;5.67;;;;;;;20.09;83.22;100502.93;1706073;84;25663;-84
2021/08/09 06:29:50;;;;;;;7.25;6.12;;;;;;;20.21;82.37;100502.50;1705992;83;26249;-84
2021/08/09 06:32:17;;;;;;;10.65;5.42;;;;;;;20.35;82.14;100501.35;1684542;84;25703;-83
2021/08/09 06:34:44;;;;;;;8.90;5.12;;;;;;;20.52;82.03;100502.17;1706002;84;27303;-83
2021/08/09 06:37:10;;;;;;;10.05;5.53;;;;;;;20.65;80.94;100504.72;1705967;84;25785;-83
2021/08/09 06:39:37;;;;;;;12.28;8.00;;;;;;;20.78;80.27;100500.58;1706629;84;25761;-84
2021/08/09 06:42:05;;;;;;;6.78;5.30;;;;;;;20.96;80.72;100510.44;1707091;83;25666;-84
2021/08/09 06:44:33;;;;;;;7.30;5.03;;;;;;;21.14;80.59;100516.13;1705984;84;25762;-84
2021/08/09 06:47:00;;;;;;;7.92;5.15;;;;;;;21.33;79.12;100521.24;1706083;83;27874;-84
2021/08/09 06:49:27;;;;;;;5.58;4.97;;;;;;;21.43;77.50;100526.84;1707198;84;25837;-83
2021/08/09 06:51:54;;;;;;;8.03;5.00;;;;;;;21.52;76.94;100523.03;1706062;83;25831;-84
2021/08/09 06:54:23;;;;;;;6.25;4.83;;;;;;;21.68;77.16;100531.07;1705950;84;25714;-85
2021/08/09 06:56:49;;;;;;;5.53;4.70;;;;;;;21.85;76.25;100524.14;1706005;83;25718;-83
2021/08/09 06:59:15;;;;;;;8.10;4.60;;;;;;;21.97;76.02;100525.23;1684298;84;28078;-84
2021/08/09 07:01:41;;;;;;;7.65;4.75;;;;;;;22.14;75.64;100523.19;1705974;83;25795;-83
2021/08/09 07:04:08;;;;;;;5.00;4.50;;;;;;;22.37;75.90;100529.88;1706059;84;25682;-84
2021/08/09 07:06:34;;;;;;;13.40;6.75;;;;;;;22.61;74.76;100530.98;1684304;84;26287;-84
2021/08/09 07:09:03;;;;;;;7.33;4.65;;;;;;;22.78;74.70;100523.39;1705774;84;25726;-85
2021/08/09 07:11:29;;;;;;;4.67;4.15;;;;;;;23.06;73.99;100531.03;1706071;84;27441;-85
2021/08/09 07:13:56;;;;;;;6.25;4.72;;;;;;;23.24;72.55;100529.72;1683341;84;25769;-84
2021/08/09 07:16:24;;;;;;;5.35;4.03;;;;;;;23.39;71.56;100522.85;1701339;83;26403;-83
2021/08/09 07:18:52;;;;;;;7.37;4.35;;;;;;;23.54;71.18;100526.44;1683864;84;26334;-84
2021/08/09 07:21:19;;;;;;;4.22;3.67;;;;;;;23.70;69.66;100531.00;1705773;84;25705;-84
2021/08/09 07:23:46;;;;;;;9.35;3.87;;;;;;;23.82;69.12;100521.55;1705710;84;27275;-84
2021/08/09 07:26:12;;;;;;;5.17;3.77;;;;;;;24.04;70.22;100522.33;1705631;84;25880;-84
2021/08/09 07:28:39;;;;;;;5.10;4.47;;;;;;;24.37;70.34;100520.34;1694127;83;25678;-84
2021/08/09 07:31:05;;;;;;;3.98;3.52;;;;;;;24.69;69.20;100520.86;1685370;84;26289;-85
2021/08/09 07:33:32;;;;;;;5.22;4.17;;;;;;;24.84;67.57;100521.00;1706062;84;26339;-85
2021/08/09 07:36:00;;;;;;;6.45;3.87;;;;;;;24.95;66.23;100520.97;1705995;84;27390;-85
2021/08/09 07:38:26;;;;;;;4.60;3.65;;;;;;;25.15;65.84;100517.12;1705932;84;26501;-85
2021/08/09 07:40:53;;;;;;;5.53;3.85;;;;;;;25.46;66.29;100520.13;1709381;83;25764;-85
2021/08/09 07:43:20;;;;;;;6.17;3.67;;;;;;;25.78;65.65;100521.86;1705639;84;26455;-86
2021/08/09 07:45:46;;;;;;;6.47;3.77;;;;;;;26.08;64.97;100519.86;1705621;84;25778;-85
2021/08/09 07:48:13;;;;;;;4.75;3.22;;;;;;;26.32;62.37;100516.66;1705672;84;27318;-85
2021/08/09 07:50:40;;;;;;;5.83;3.45;;;;;;;26.36;62.25;100522.97;1685496;84;25796;-85
2021/08/09 07:53:08;;;;;;;4.90;3.85;;;;;;;26.61;62.07;100524.67;1705673;83;25741;-85
2021/08/09 07:55:34;;;;;;;7.75;3.58;;;;;;;26.77;60.89;100528.30;1685783;84;25814;-84
2021/08/09 07:58:01;;;;;;;4.42;3.25;;;;;;;26.98;60.96;100527.23;1686210;84;25400;-84
2021/08/09 08:00:27;;;;;;;6.33;3.52;;;;;;;27.11;58.88;100526.88;1705645;84;27295;-85
2021/08/09 08:02:54;;;;;;;4.60;3.05;;;;;;;27.08;58.45;100530.47;1705577;84;25757;-84
2021/08/09 08:05:20;;;;;;;6.08;3.67;;;;;;;27.23;59.64;100527.52;1705590;84;26369;-85
2021/08/09 08:07:47;;;;;;;6.00;3.27;;;;;;;27.56;59.25;100531.41;1693298;83;25788;-84
2021/08/09 08:10:13;;;;;;;3.87;2.75;;;;;;;27.79;59.00;100534.84;1707131;83;25691;-84
2021/08/09 08:12:40;;;;;;;5.22;2.98;;;;;;;27.87;56.80;100529.34;1705532;84;27397;-84
2021/08/09 08:15:07;;;;;;;4.83;3.10;;;;;;;27.83;55.39;100527.22;1709088;83;25651;-84
2021/08/09 08:17:34;;;;;;;3.92;2.80;;;;;;;27.84;54.72;100533.55;1710521;83;25765;-83
2021/08/09 08:20:00;;;;;;;5.33;2.75;;;;;;;27.83;55.09;100527.83;1710524;83;26293;-83
2021/08/09 08:22:27;;;;;;;4.87;2.87;;;;;;;27.90;54.82;100523.53;1687200;83;25869;-84
2021/08/09 08:24:53;;;;;;;4.75;2.62;;;;;;;28.08;54.38;100533.00;1710428;83;27977;-84
2021/08/09 08:27:19;;;;;;;5.87;3.00;;;;;;;28.35;55.57;100528.74;1710353;83;25742;-84
2021/08/09 08:29:46;;;;;;;4.37;2.77;;;;;;;28.63;53.93;100527.42;1710472;83;25770;-84
2021/08/09 08:32:12;;;;;;;4.50;2.70;;;;;;;28.86;54.06;100527.16;1687233;83;25806;-84
2021/08/09 08:34:39;;;;;;;3.47;2.60;;;;;;;29.15;53.40;100533.51;1710702;83;25660;-83
2021/08/09 08:37:05;;;;;;;4.10;2.40;;;;;;;29.20;52.08;100533.03;1686113;83;29320;-83
2021/08/09 08:39:32;;;;;;;6.60;2.37;;;;;;;29.21;51.66;100540.95;1710076;83;25721;-83
2021/08/09 08:41:59;;;;;;;3.83;2.37;;;;;;;29.18;50.23;100531.29;1710723;83;25754;-82
2021/08/09 08:44:26;;;;;;;6.12;2.47;;;;;;;29.29;50.99;100534.63;1711680;83;25620;-82
2021/08/09 08:46:59;;;;;;;5.03;2.30;;;;;;;29.55;50.33;100534.84;1711211;83;26435;-81
2021/08/09 08:49:23;;;;;;;3.62;2.30;;;;;;;29.66;46.35;100536.77;1708934;83;27359;-81
2021/08/09 08:51:50;;;;;;;7.05;2.65;;;;;;;29.59;47.83;100545.28;1710597;83;25731;-82
2021/08/09 08:54:17;;;;;;;5.87;2.90;;;;;;;29.42;47.68;100550.84;1710403;83;25699;-82
2021/08/09 08:56:47;;;;;;;3.67;2.92;;;;;;;29.43;47.91;100556.58;1710114;83;25703;-82
2021/08/09 08:59:15;;;;;;;7.20;3.42;;;;;;;29.39;47.40;100546.75;1710423;83;25698;-82
2021/08/09 09:01:46;;;;;;;6.78;2.62;;;;;;;29.58;49.30;100547.29;1710838;83;27373;-82
2021/08/09 09:04:31;;;;;;;3.70;2.42;;;;;;;30.00;48.99;100555.06;1709884;83;25724;-82
2021/08/09 09:07:04;;;;;;;4.95;2.33;;;;;;;30.15;48.23;100560.47;1710505;83;25763;-82
2021/08/09 09:09:38;;;;;;;3.52;2.12;;;;;;;30.44;48.19;100556.16;1710428;83;25741;-83
2021/08/09 09:12:17;;;;;;;4.70;2.45;;;;;;;30.86;47.86;100565.34;1710493;83;25758;-83
2021/08/09 09:14:45;;;;;;;6.67;2.52;;;;;;;31.07;47.45;100567.38;1710362;83;27458;-82
2021/08/09 09:17:11;;;;;;;4.87;2.12;;;;;;;31.53;46.82;100567.98;1710274;83;25699;-83
2021/08/09 09:19:43;;;;;;;2.80;2.27;;;;;;;31.78;45.96;100566.42;1710307;83;25711;-83
2021/08/09 09:22:21;;;;;;;3.92;2.33;;;;;;;32.08;46.02;100570.65;1710460;83;25681;-83
2021/08/09 09:24:51;;;;;;;4.25;2.00;;;;;;;32.36;44.97;100569.49;1708752;83;25791;-82
2021/08/09 09:27:34;;;;;;;4.28;2.45;;;;;;;32.37;43.04;100584.44;1685178;83;27265;-83
2021/08/09 09:30:28;;;;;;;8.30;2.40;;;;;;;32.41;43.38;100571.70;1710428;83;25797;-83
2021/08/09 09:33:03;;;;;;;3.83;2.00;;;;;;;32.61;42.92;100578.44;1710183;83;25741;-84
2021/08/09 09:35:31;;;;;;;2.95;1.72;;;;;;;32.59;42.01;100580.88;1709903;83;25764;-84
2021/08/09 09:37:57;;;;;;;1.90;1.70;;;;;;;32.73;41.99;100582.41;1686614;83;25789;-84
2021/08/09 09:40:24;;;;;;;3.30;1.52;;;;;;;32.71;40.85;100580.06;1710643;83;27464;-84
2021/08/09 09:42:52;;;;;;;4.15;2.00;;;;;;;32.69;40.29;100576.14;1710278;83;25647;-83
2021/08/09 09:45:28;;;;;;;2.22;2.02;;;;;;;32.55;40.41;100577.41;1687961;83;25805;-82
2021/08/09 09:48:07;;;;;;;4.17;1.85;;;;;;;32.71;40.35;100580.66;1710299;83;25752;-82
2021/08/09 09:50:37;;;;;;;4.08;1.90;;;;;;;32.93;39.92;100579.25;1687072;83;25842;-83
2021/08/09 09:53:22;;;;;;;1.60;1.50;;;;;;;33.18;39.29;100578.34;1710523;83;27316;-81
2021/08/09 09:55:53;;;;;;;1.72;1.35;;;;;;;33.27;38.86;100578.41;1710361;83;25694;-82
2021/08/09 09:58:20;;;;;;;3.25;1.35;;;;;;;33.06;35.87;100580.59;1710183;83;25696;-82
2021/08/09 10:00:47;;;;;;;7.08;1.85;;;;;;;32.41;36.03;100590.53;1709960;83;26219;-82
2021/08/09 10:03:14;;;;;;;2.95;1.77;;;;;;;31.92;37.06;100599.50;1709748;83;25673;-83
2021/08/09 10:05:43;;;;;;;56.73;53.83;;;;;;;31.83;38.41;100595.98;1709496;83;27370;-82
2021/08/09 10:08:15;;;;;;;10.90;9.90;;;;;;;32.05;38.06;100593.13;1675812;85;25812;-81
2021/08/09 10:10:51;;;;;;;4.03;1.90;;;;;;;32.01;36.82;100591.22;1710446;83;25666;-82
2021/08/09 10:13:21;;;;;;;5.50;2.00;;;;;;;31.74;38.01;100594.50;1710404;83;25731;-82
2021/08/09 10:15:51;;;;;;;1.95;1.77;;;;;;;31.99;39.01;100599.28;1685652;83;25732;-81
2021/08/09 10:18:23;;;;;;;3.12;1.80;;;;;;;31.94;37.41;100599.05;1705403;84;27344;-81
2021/08/09 10:20:52;;;;;;;2.33;1.57;;;;;;;31.92;37.84;100602.92;1705440;84;25664;-81
2021/08/09 10:23:48;;;;;;;2.77;2.00;;;;;;;32.08;37.54;100602.02;1705675;84;25650;-80
2021/08/09 10:26:34;;;;;;;1.85;1.60;;;;;;;32.30;38.92;100602.87;1705631;84;26422;-80
2021/08/09 10:29:08;;;;;;;2.87;1.60;;;;;;;32.98;38.62;100596.87;1685099;83;25704;-80
2021/08/09 10:31:40;;;;;;;4.15;1.85;;;;;;;32.95;37.51;100594.38;1713101;83;27330;-79
2021/08/09 10:34:10;;;;;;;4.55;1.87;;;;;;;32.80;37.22;100607.98;1684800;84;25814;-79
2021/08/09 10:37:15;;;;;;;8.15;4.42;;;;;;;33.02;37.64;100607.34;1703410;84;25906;-78
2021/08/09 10:40:02;;;;;;;4.92;1.70;;;;;;;33.09;37.59;100597.27;1686909;84;26870;-77
2021/08/09 10:42:45;;;;;;;3.27;1.57;;;;;;;33.19;36.51;100596.73;1705734;84;25809;-78
2021/08/09 10:45:14;;;;;;;54.08;51.00;;;;;;;33.29;37.20;100596.94;1705722;83;26481;-78
2021/08/09 10:47:51;;;;;;;1.75;1.65;;;;;;;33.68;35.63;100593.23;1715787;83;25826;-78
2021/08/09 10:50:28;;;;;;;3.33;1.75;;;;;;;34.14;36.07;100601.58;1715877;83;25801;-77
2021/08/09 10:52:57;;;;;;;1.62;1.40;;;;;;;34.11;33.15;100599.10;1705245;83;26267;-77
2021/08/09 10:55:38;;;;;;;2.62;1.35;;;;;;;34.16;34.92;100606.13;1705846;83;25872;-77
2021/08/09 10:58:06;;;;;;;2.02;1.40;;;;;;;34.16;33.95;100608.30;1705808;83;27337;-78
2021/08/09 11:00:44;;;;;;;2.75;1.40;;;;;;;34.17;34.38;100608.45;1705707;84;25698;-77
2021/08/09 11:03:20;;;;;;;3.02;1.57;;;;;;;34.24;33.56;100608.20;1705873;83;25770;-78
2021/08/09 11:05:43;;;;;;;2.90;1.45;;;;;;;34.12;32.94;100610.47;1705112;83;25743;-78
2021/08/09 11:08:27;;;;;;;1.30;1.20;;;;;;;33.85;32.40;100608.38;1705775;84;25663;-79
2021/08/09 11:11:05;;;;;;;54.58;51.88;;;;;;;33.85;32.40;100608.38;1705687;83;27449;-79
2021/08/09 11:13:39;;;;;;;2.02;1.40;;;;;;;33.58;32.80;100607.03;1705729;84;25795;-79
2021/08/09 11:16:06;;;;;;;2.95;2.05;;;;;;;33.90;33.26;100607.00;1709069;83;25670;-79
2021/08/09 11:18:35;;;;;;;3.75;1.60;;;;;;;34.16;32.99;100613.15;1710323;83;25828;-79
2021/08/09 11:21:03;;;;;;;;;;;;;;;34.51;32.68;100607.27;1713079;83;25794;-79
2021/08/09 11:23:42;;;;;;;2.62;1.47;;;;;;;34.79;31.70;100612.28;1710543;83;27339;-79
2021/08/09 11:26:24;;;;;;;5.75;2.05;;;;;;;34.60;32.07;100611.48;1710194;83;25775;-79
2021/08/09 11:29:06;;;;;;;3.08;1.82;;;;;;;34.76;30.89;100615.39;1710485;83;25701;-79
2021/08/09 11:31:50;;;;;;;2.70;1.42;;;;;;;34.29;30.10;100617.23;1710422;83;26307;-79
2021/08/09 11:34:17;;;;;;;3.87;1.50;;;;;;;33.87;30.76;100617.91;1710549;83;25777;-79